Time;durP1;ratioP1;P1;durP2;ratioP2;P2;SDS_P1;SDS_P2;PMS_P1;PMS_P2;Temp;Humidity;BMP_temperature;BMP_pressure;BME280_temperature;BME280_humidity;BME280_pressure;Samples;Min_cycle;Max_cycle;Signal;HPM_P1;HPM_P2
2021/07/10 00:02:22;;;;;;;10.47;9.57;;;;;;;;;;5098001;28;20476;-69
2021/07/10 00:04:49;;;;;;;12.67;11.57;;;;;;;;;;5097028;28;20811;-69
2021/07/10 00:07:16;;;;;;;15.90;11.30;;;;;;;;;;5097139;28;20444;-69
2021/07/10 00:09:44;;;;;;;12.80;11.50;;;;;;;;;;5097158;28;20441;-69
2021/07/10 00:12:11;;;;;;;12.33;11.20;;;;;;;;;;5097401;28;20918;-69
2021/07/10 00:14:39;;;;;;;14.07;11.90;;;;;;;;;;5097304;28;20448;-68
2021/07/10 00:17:06;;;;;;;13.33;12.10;;;;;;;;;;5096634;28;20453;-69
2021/07/10 00:19:34;;;;;;;13.70;12.30;;;;;;;;;;5097337;28;20801;-69
2021/07/10 00:22:01;;;;;;;13.17;11.63;;;;;;;;;;5096445;28;20474;-68
2021/07/10 00:24:30;;;;;;;14.30;12.57;;;;;;;;;;5097428;28;20443;-69
2021/07/10 00:26:58;;;;;;;15.13;12.50;;;;;;;;;;5097326;28;20443;-68
2021/07/10 00:29:25;;;;;;;13.00;11.80;;;;;;;;;;5097125;28;20437;-69
2021/07/10 00:31:53;;;;;;;14.77;13.27;;;;;;;;;;5096727;28;20449;-69
2021/07/10 00:34:21;;;;;;;14.83;13.00;;;;;;;;;;5096583;28;20446;-69
2021/07/10 00:36:48;;;;;;;15.07;13.63;;;;;;;;;;5096871;28;20444;-69
2021/07/10 00:39:15;;;;;;;15.17;13.60;;;;;;;;;;5096402;28;20436;-69
2021/07/10 00:41:42;;;;;;;18.73;14.50;;;;;;;;;;5096137;28;20471;-69
2021/07/10 00:44:09;;;;;;;17.67;15.03;;;;;;;;;;5096903;28;20444;-69
2021/07/10 00:46:36;;;;;;;17.20;15.40;;;;;;;;;;5096390;28;20437;-68
2021/07/10 00:49:05;;;;;;;18.07;16.13;;;;;;;;;;5096064;28;20445;-69
2021/07/10 00:51:32;;;;;;;18.37;16.10;;;;;;;;;;5095995;28;20511;-68
2021/07/10 00:54:00;;;;;;;19.60;16.33;;;;;;;;;;5096128;28;20476;-69
2021/07/10 00:56:27;;;;;;;20.30;16.93;;;;;;;;;;5096564;28;20472;-69
2021/07/10 00:58:55;;;;;;;16.50;14.70;;;;;;;;;;5096200;28;20608;-68
2021/07/10 01:01:22;;;;;;;16.40;14.53;;;;;;;;;;5096204;28;20567;-69
2021/07/10 01:03:50;;;;;;;16.97;14.07;;;;;;;;;;5096038;28;20542;-68
2021/07/10 01:06:18;;;;;;;15.50;13.90;;;;;;;;;;5095631;28;20447;-69
2021/07/10 01:08:47;;;;;;;17.40;15.70;;;;;;;;;;5095899;28;20435;-69
2021/07/10 01:11:15;;;;;;;16.70;14.57;;;;;;;;;;5095861;28;20447;-68
2021/07/10 01:13:42;;;;;;;19.87;16.53;;;;;;;;;;5095408;28;20445;-69
2021/07/10 01:16:10;;;;;;;18.07;16.27;;;;;;;;;;5095653;28;20454;-69
2021/07/10 01:18:37;;;;;;;21.10;18.77;;;;;;;;;;5095666;28;20806;-69
2021/07/10 01:21:06;;;;;;;19.00;17.10;;;;;;;;;;5096227;28;20435;-69
2021/07/10 01:23:33;;;;;;;19.77;16.53;;;;;;;;;;5095271;28;20514;-69
2021/07/10 01:26:00;;;;;;;23.40;16.63;;;;;;;;;;5095596;28;20554;-69
2021/07/10 01:28:28;;;;;;;19.97;17.87;;;;;;;;;;5095524;28;20530;-69
2021/07/10 01:30:55;;;;;;;19.57;16.73;;;;;;;;;;5095446;28;20458;-69
2021/07/10 01:33:22;;;;;;;20.43;18.23;;;;;;;;;;5095543;28;20444;-69
2021/07/10 01:35:50;;;;;;;23.03;17.63;;;;;;;;;;5095653;28;20772;-69
2021/07/10 01:38:19;;;;;;;20.40;18.30;;;;;;;;;;5093210;28;20955;-69
2021/07/10 01:40:46;;;;;;;20.40;17.07;;;;;;;;;;5075466;28;20447;-69
2021/07/10 01:43:14;;;;;;;20.73;17.53;;;;;;;;;;5075155;28;20515;-69
2021/07/10 01:45:42;;;;;;;21.20;18.00;;;;;;;;;;5074900;28;20451;-69
2021/07/10 01:48:12;;;;;;;19.30;17.20;;;;;;;;;;5075038;28;20435;-69
2021/07/10 01:50:40;;;;;;;27.30;16.90;;;;;;;;;;5074871;28;20436;-69
2021/07/10 01:53:07;;;;;;;19.33;17.23;;;;;;;;;;5074791;28;20441;-70
2021/07/10 01:55:36;;;;;;;22.10;17.70;;;;;;;;;;5075310;28;20480;-69
2021/07/10 01:58:03;;;;;;;22.17;17.33;;;;;;;;;;5074811;28;20538;-69
2021/07/10 02:00:31;;;;;;;20.10;17.50;;;;;;;;;;5073754;28;20946;-70
2021/07/10 02:02:58;;;;;;;18.50;15.90;;;;;;;;;;5074724;28;20482;-69
2021/07/10 02:05:27;;;;;;;17.20;15.40;;;;;;;;;;5074424;28;20531;-69
2021/07/10 02:07:56;;;;;;;18.23;16.17;;;;;;;;;;5074063;28;20440;-69
2021/07/10 02:10:23;;;;;;;19.10;16.20;;;;;;;;;;5073922;28;20454;-70
2021/07/10 02:12:54;;;;;;;18.67;15.97;;;;;;;;;;5074305;28;20877;-69
2021/07/10 02:15:21;;;;;;;20.20;16.90;;;;;;;;;;5074630;28;20456;-69
2021/07/10 02:17:48;;;;;;;25.80;17.50;;;;;;;;;;5073826;28;20453;-69
2021/07/10 02:20:18;;;;;;;17.93;15.90;;;;;;;;;;5074165;28;20502;-70
2021/07/10 02:22:45;;;;;;;20.43;14.67;;;;;;;;;;5074116;28;20512;-70
2021/07/10 02:25:14;;;;;;;21.20;15.70;;;;;;;;;;5074265;28;20440;-70
2021/07/10 02:27:41;;;;;;;15.33;13.73;;;;;;;;;;5073962;28;20453;-70
2021/07/10 02:30:12;;;;;;;18.63;16.30;;;;;;;;;;5073930;28;20440;-70
2021/07/10 02:32:39;;;;;;;16.53;14.43;;;;;;;;;;5074369;28;20445;-70
2021/07/10 02:35:06;;;;;;;19.77;15.77;;;;;;;;;;5073772;28;20445;-70
2021/07/10 02:37:34;;;;;;;15.97;14.40;;;;;;;;;;5074535;28;20449;-70
2021/07/10 02:40:02;;;;;;;23.87;16.50;;;;;;;;;;5073812;28;20443;-70
2021/07/10 02:42:29;;;;;;;16.93;14.80;;;;;;;;;;5073895;28;20483;-70
2021/07/10 02:44:57;;;;;;;17.27;15.53;;;;;;;;;;5073813;28;20442;-70
2021/07/10 02:47:25;;;;;;;18.80;16.80;;;;;;;;;;5073505;28;20964;-70
2021/07/10 02:49:53;;;;;;;19.27;16.50;;;;;;;;;;5073319;28;20437;-69
2021/07/10 02:52:20;;;;;;;20.33;16.37;;;;;;;;;;5073575;28;20498;-71
2021/07/10 02:54:47;;;;;;;18.70;15.50;;;;;;;;;;5073599;28;20479;-70
2021/07/10 02:57:15;;;;;;;16.50;14.90;;;;;;;;;;5073642;28;20523;-70
2021/07/10 02:59:42;;;;;;;17.03;15.10;;;;;;;;;;5074356;28;20441;-70
2021/07/10 03:02:11;;;;;;;19.00;17.10;;;;;;;;;;5073272;28;21020;-70
2021/07/10 03:04:41;;;;;;;18.90;17.00;;;;;;;;;;5073459;28;20485;-70
2021/07/10 03:07:08;;;;;;;18.53;16.63;;;;;;;;;;5074031;28;20492;-70
2021/07/10 03:09:35;;;;;;;20.93;18.00;;;;;;;;;;5073412;28;20443;-70
2021/07/10 03:12:03;;;;;;;19.03;17.07;;;;;;;;;;5072455;28;20433;-70
2021/07/10 03:14:30;;;;;;;20.37;18.23;;;;;;;;;;5073665;28;20442;-70
2021/07/10 03:16:57;;;;;;;19.07;17.07;;;;;;;;;;5073270;28;20433;-70
2021/07/10 03:19:24;;;;;;;21.77;18.07;;;;;;;;;;5073424;28;20474;-70
2021/07/10 03:21:53;;;;;;;22.97;18.83;;;;;;;;;;5072898;28;20510;-70
2021/07/10 03:24:20;;;;;;;19.43;17.13;;;;;;;;;;5072956;28;20532;-70
2021/07/10 03:26:48;;;;;;;19.20;17.20;;;;;;;;;;5073148;28;20790;-70
2021/07/10 03:29:15;;;;;;;18.70;16.70;;;;;;;;;;5073377;28;20451;-70
2021/07/10 03:31:42;;;;;;;19.23;17.30;;;;;;;;;;5072960;28;20451;-70
2021/07/10 03:34:09;;;;;;;18.43;15.80;;;;;;;;;;5072883;28;20436;-71
2021/07/10 03:36:36;;;;;;;19.37;16.53;;;;;;;;;;5073190;28;20977;-70
2021/07/10 03:39:05;;;;;;;19.50;16.43;;;;;;;;;;5072933;28;20441;-70
2021/07/10 03:41:32;;;;;;;19.20;17.20;;;;;;;;;;5072970;28;20448;-70
2021/07/10 03:43:59;;;;;;;20.77;16.50;;;;;;;;;;5073179;28;20484;-69
2021/07/10 03:46:27;;;;;;;16.73;15.13;;;;;;;;;;5073198;28;20474;-69
2021/07/10 03:48:54;;;;;;;18.80;16.63;;;;;;;;;;5073148;28;20447;-69
2021/07/10 03:51:22;;;;;;;19.53;17.00;;;;;;;;;;5073690;28;20436;-69
2021/07/10 03:53:49;;;;;;;19.30;17.00;;;;;;;;;;5073103;28;20469;-69
2021/07/10 03:56:19;;;;;;;21.37;16.80;;;;;;;;;;5073000;28;20421;-69
2021/07/10 03:58:46;;;;;;;21.20;17.40;;;;;;;;;;5073475;28;20433;-69
2021/07/10 04:01:14;;;;;;;20.10;18.00;;;;;;;;;;5072749;28;20440;-69
2021/07/10 04:03:41;;;;;;;19.70;17.00;;;;;;;;;;5072851;28;20564;-70
2021/07/10 04:06:08;;;;;;;19.93;17.83;;;;;;;;;;5073173;28;20451;-70
2021/07/10 04:08:35;;;;;;;22.40;19.00;;;;;;;;;;5072916;28;20449;-70
2021/07/10 04:11:03;;;;;;;22.37;17.77;;;;;;;;;;5072651;28;20437;-69
2021/07/10 04:13:31;;;;;;;20.60;17.70;;;;;;;;;;5072599;28;20442;-69
2021/07/10 04:16:00;;;;;;;20.80;18.03;;;;;;;;;;5073150;28;20440;-69
2021/07/10 04:18:27;;;;;;;21.07;17.90;;;;;;;;;;5072761;28;20564;-69
2021/07/10 04:20:54;;;;;;;22.60;17.97;;;;;;;;;;5072462;28;20446;-69
2021/07/10 04:23:23;;;;;;;22.40;19.30;;;;;;;;;;5074637;28;20484;-69
2021/07/10 04:25:50;;;;;;;24.03;18.10;;;;;;;;;;5076561;28;20446;-69
2021/07/10 04:28:18;;;;;;;23.23;18.63;;;;;;;;;;5076311;28;20527;-69
2021/07/10 04:30:46;;;;;;;24.17;20.80;;;;;;;;;;5079432;28;20471;-70
2021/07/10 04:33:13;;;;;;;21.07;18.87;;;;;;;;;;5084632;28;20463;-70
2021/07/10 04:35:41;;;;;;;24.90;19.20;;;;;;;;;;5076035;28;20555;-69
2021/07/10 04:38:08;;;;;;;18.37;16.37;;;;;;;;;;5076585;28;20442;-69
2021/07/10 04:40:35;;;;;;;23.93;18.00;;;;;;;;;;5076290;28;20444;-69
2021/07/10 04:43:02;;;;;;;20.57;18.30;;;;;;;;;;5075757;28;20468;-69
2021/07/10 04:45:30;;;;;;;18.97;16.97;;;;;;;;;;5075773;28;20448;-69
2021/07/10 04:47:58;;;;;;;18.20;16.40;;;;;;;;;;5075793;28;20443;-69
2021/07/10 04:50:26;;;;;;;19.40;17.40;;;;;;;;;;5076033;28;20450;-69
2021/07/10 04:52:53;;;;;;;19.37;17.27;;;;;;;;;;5076094;28;20445;-69
2021/07/10 04:55:20;;;;;;;20.90;18.70;;;;;;;;;;5076605;28;20469;-69
2021/07/10 04:57:48;;;;;;;20.03;17.97;;;;;;;;;;5076340;28;20441;-69
2021/07/10 05:00:17;;;;;;;20.30;17.57;;;;;;;;;;5075636;28;20780;-70
2021/07/10 05:02:44;;;;;;;27.77;18.23;;;;;;;;;;5075534;28;20483;-69
2021/07/10 05:05:13;;;;;;;23.03;17.80;;;;;;;;;;5075438;28;20452;-70
2021/07/10 05:07:40;;;;;;;21.60;16.53;;;;;;;;;;5075878;28;20496;-69
2021/07/10 05:10:08;;;;;;;17.80;15.87;;;;;;;;;;5075901;28;20440;-69
2021/07/10 05:12:35;;;;;;;18.57;16.57;;;;;;;;;;5075379;28;20455;-69
2021/07/10 05:15:03;;;;;;;19.40;16.43;;;;;;;;;;5075368;28;20480;-69
2021/07/10 05:17:30;;;;;;;16.67;15.07;;;;;;;;;;5075234;28;20475;-69
2021/07/10 05:19:57;;;;;;;18.90;16.93;;;;;;;;;;5075140;28;20928;-69
2021/07/10 05:22:26;;;;;;;20.77;18.13;;;;;;;;;;5075147;28;20483;-69
2021/07/10 05:24:53;;;;;;;19.27;17.20;;;;;;;;;;5075126;28;20532;-69
2021/07/10 05:27:20;;;;;;;20.50;18.00;;;;;;;;;;5075149;28;20926;-69
2021/07/10 05:29:47;;;;;;;22.73;19.30;;;;;;;;;;5075262;28;20447;-69
2021/07/10 05:32:15;;;;;;;22.07;18.70;;;;;;;;;;5075307;28;20545;-69
2021/07/10 05:34:43;;;;;;;21.40;19.27;;;;;;;;;;5073995;28;20510;-69
2021/07/10 05:37:10;;;;;;;25.80;19.20;;;;;;;;;;5074733;28;20445;-69
2021/07/10 05:39:39;;;;;;;21.70;19.40;;;;;;;;;;5074716;28;20441;-70
2021/07/10 05:42:07;;;;;;;23.20;19.20;;;;;;;;;;5075011;28;20440;-69
2021/07/10 05:44:34;;;;;;;21.10;18.80;;;;;;;;;;5075153;28;20487;-69
2021/07/10 05:47:01;;;;;;;22.13;19.83;;;;;;;;;;5074936;28;20529;-69
2021/07/10 05:49:28;;;;;;;23.90;20.03;;;;;;;;;;5074361;28;20442;-69
2021/07/10 05:51:55;;;;;;;21.67;19.30;;;;;;;;;;5074384;28;20930;-69
2021/07/10 05:54:23;;;;;;;22.30;19.80;;;;;;;;;;5074246;28;20479;-69
2021/07/10 05:56:52;;;;;;;23.40;21.00;;;;;;;;;;5074757;28;20469;-68
2021/07/10 05:59:19;;;;;;;23.13;20.67;;;;;;;;;;5074571;28;20446;-69
2021/07/10 06:01:46;;;;;;;26.53;22.20;;;;;;;;;;5074171;28;20445;-69
2021/07/10 06:04:13;;;;;;;21.67;19.37;;;;;;;;;;5074160;28;20475;-69
2021/07/10 06:06:43;;;;;;;23.80;21.23;;;;;;;;;;5074304;28;20449;-69
2021/07/10 06:09:10;;;;;;;27.47;22.17;;;;;;;;;;5074321;28;20548;-69
2021/07/10 06:11:37;;;;;;;26.17;22.17;;;;;;;;;;5075171;28;20794;-69
2021/07/10 06:14:08;;;;;;;27.07;22.50;;;;;;;;;;5075022;28;20821;-68
2021/07/10 06:16:35;;;;;;;29.30;23.17;;;;;;;;;;5074590;28;20877;-68
2021/07/10 06:19:02;;;;;;;25.83;22.70;;;;;;;;;;5074313;28;20447;-69
2021/07/10 06:21:31;;;;;;;28.40;23.63;;;;;;;;;;5074133;28;20443;-68
2021/07/10 06:23:58;;;;;;;29.10;22.40;;;;;;;;;;5073689;28;20516;-69
2021/07/10 06:26:25;;;;;;;30.07;24.60;;;;;;;;;;5075014;28;20447;-69
2021/07/10 06:28:52;;;;;;;28.33;23.00;;;;;;;;;;5074061;28;20857;-69
2021/07/10 06:31:21;;;;;;;29.67;24.60;;;;;;;;;;5073929;28;20444;-69
2021/07/10 06:33:49;;;;;;;33.10;24.43;;;;;;;;;;5074715;28;20452;-69
2021/07/10 06:36:16;;;;;;;28.23;22.10;;;;;;;;;;5073665;28;20450;-69
2021/07/10 06:38:44;;;;;;;32.37;24.87;;;;;;;;;;5073905;28;20448;-69
2021/07/10 06:41:11;;;;;;;31.67;24.30;;;;;;;;;;5073487;28;20448;-69
2021/07/10 06:43:38;;;;;;;30.20;24.67;;;;;;;;;;5073604;28;20473;-69
2021/07/10 06:46:07;;;;;;;30.47;25.10;;;;;;;;;;5073802;28;20445;-69
2021/07/10 06:48:36;;;;;;;30.60;23.80;;;;;;;;;;5073490;28;20455;-69
2021/07/10 06:51:03;;;;;;;26.13;22.67;;;;;;;;;;5073345;28;20444;-68
2021/07/10 06:53:30;;;;;;;33.00;26.03;;;;;;;;;;5073272;28;20538;-69
2021/07/10 06:55:58;;;;;;;32.40;24.97;;;;;;;;;;5074141;28;20466;-68
2021/07/10 06:58:25;;;;;;;34.33;28.67;;;;;;;;;;5073182;28;20529;-67
2021/07/10 07:00:53;;;;;;;32.27;27.40;;;;;;;;;;5073342;28;20460;-68
2021/07/10 07:03:20;;;;;;;35.27;27.30;;;;;;;;;;5073793;28;20905;-68
2021/07/10 07:05:49;;;;;;;34.87;27.33;;;;;;;;;;5073199;28;20550;-68
2021/07/10 07:08:16;;;;;;;34.27;28.90;;;;;;;;;;5073500;28;20528;-69
2021/07/10 07:10:43;;;;;;;32.83;28.60;;;;;;;;;;5074010;28;20463;-68
2021/07/10 07:13:10;;;;;;;32.87;26.20;;;;;;;;;;5073126;28;20533;-68
2021/07/10 07:15:38;;;;;;;32.20;27.17;;;;;;;;;;5073207;28;21010;-68
2021/07/10 07:18:06;;;;;;;31.70;26.27;;;;;;;;;;5072977;28;20918;-68
2021/07/10 07:20:33;;;;;;;29.33;26.13;;;;;;;;;;5073280;28;20504;-69
2021/07/10 07:23:02;;;;;;;35.23;25.63;;;;;;;;;;5073039;28;20443;-68
2021/07/10 07:25:34;;;;;;;32.30;26.07;;;;;;;;;;5073857;28;20821;-69
2021/07/10 07:28:02;;;;;;;32.63;27.80;;;;;;;;;;5074099;28;20445;-69
2021/07/10 07:30:29;;;;;;;31.60;25.90;;;;;;;;;;5073561;28;20526;-68
2021/07/10 07:32:56;;;;;;;34.23;26.47;;;;;;;;;;5073087;28;20445;-69
2021/07/10 07:35:24;;;;;;;29.43;25.63;;;;;;;;;;5073163;28;20962;-68
2021/07/10 07:37:51;;;;;;;28.47;25.13;;;;;;;;;;5072888;28;20939;-69
2021/07/10 07:40:20;;;;;;;32.30;26.20;;;;;;;;;;5073224;28;20535;-69
2021/07/10 07:42:48;;;;;;;37.07;28.47;;;;;;;;;;5073027;28;20453;-68
2021/07/10 07:45:16;;;;;;;36.00;29.07;;;;;;;;;;5072718;28;20478;-68
2021/07/10 07:47:43;;;;;;;31.43;26.90;;;;;;;;;;5072749;28;20481;-68
2021/07/10 07:50:12;;;;;;;32.10;27.10;;;;;;;;;;5072963;28;20529;-68
2021/07/10 07:52:39;;;;;;;34.17;27.47;;;;;;;;;;5072971;28;20524;-68
2021/07/10 07:55:07;;;;;;;37.33;29.50;;;;;;;;;;5072965;28;20526;-68
2021/07/10 07:57:36;;;;;;;31.10;27.10;;;;;;;;;;5074401;28;20773;-68
2021/07/10 08:00:04;;;;;;;31.63;23.97;;;;;;;;;;5076596;28;20446;-69
2021/07/10 08:02:31;;;;;;;25.70;22.93;;;;;;;;;;5077108;28;20538;-68
2021/07/10 08:04:58;;;;;;;35.77;25.23;;;;;;;;;;5076920;28;20485;-68
2021/07/10 08:07:25;;;;;;;32.90;24.57;;;;;;;;;;5077064;28;20455;-68
2021/07/10 08:09:53;;;;;;;29.20;21.20;;;;;;;;;;5076574;28;20452;-68
2021/07/10 08:12:20;;;;;;;20.07;17.97;;;;;;;;;;5076492;28;20448;-68
2021/07/10 08:14:48;;;;;;;19.40;17.23;;;;;;;;;;5076758;28;20964;-68
2021/07/10 08:17:16;;;;;;;23.80;19.50;;;;;;;;;;5076387;28;20451;-67
2021/07/10 08:19:43;;;;;;;22.07;19.77;;;;;;;;;;5076356;28;20489;-67
2021/07/10 08:22:10;;;;;;;25.00;20.10;;;;;;;;;;5076302;28;20457;-68
2021/07/10 08:24:37;;;;;;;19.87;17.80;;;;;;;;;;5076562;28;20484;-68
2021/07/10 08:27:06;;;;;;;20.80;17.77;;;;;;;;;;5076512;28;20441;-68
2021/07/10 08:29:33;;;;;;;31.03;21.60;;;;;;;;;;5076676;28;20447;-68
2021/07/10 08:32:02;;;;;;;21.50;19.30;;;;;;;;;;5076690;28;20458;-68
2021/07/10 08:34:29;;;;;;;23.53;19.00;;;;;;;;;;5076031;28;20437;-68
2021/07/10 08:36:56;;;;;;;18.07;16.13;;;;;;;;;;5076055;28;20453;-69
2021/07/10 08:39:23;;;;;;;22.90;15.57;;;;;;;;;;5076078;28;20448;-69
2021/07/10 08:41:51;;;;;;;26.40;12.40;;;;;;;;;;5082473;28;20445;-69
2021/07/10 08:44:18;;;;;;;21.13;13.40;;;;;;;;;;5080574;28;20991;-69
2021/07/10 08:46:46;;;;;;;16.53;14.60;;;;;;;;;;5083405;28;20792;-70
2021/07/10 08:49:16;;;;;;;16.27;13.10;;;;;;;;;;5096703;28;20435;-69
2021/07/10 08:51:45;;;;;;;15.50;11.87;;;;;;;;;;5096488;28;20940;-69
2021/07/10 08:54:12;;;;;;;14.10;10.43;;;;;;;;;;5096597;28;20470;-68
2021/07/10 08:56:39;;;;;;;16.17;12.27;;;;;;;;;;5096272;28;20440;-69
2021/07/10 08:59:09;;;;;;;16.00;13.13;;;;;;;;;;5096243;28;20439;-68
2021/07/10 09:01:36;;;;;;;14.00;11.90;;;;;;;;;;5096155;28;20450;-68
2021/07/10 09:04:03;;;;;;;19.20;14.27;;;;;;;;;;5095986;28;20477;-68
2021/07/10 09:06:32;;;;;;;15.50;13.90;;;;;;;;;;5096245;28;20445;-68
2021/07/10 09:09:03;;;;;;;16.10;14.10;;;;;;;;;;5094584;28;20450;-70
2021/07/10 09:11:30;;;;;;;19.00;14.60;;;;;;;;;;5095673;28;20456;-68
2021/07/10 09:13:58;;;;;;;14.13;11.90;;;;;;;;;;5096233;28;20504;-69
2021/07/10 09:16:25;;;;;;;13.20;11.33;;;;;;;;;;5095858;28;20518;-69
2021/07/10 09:18:54;;;;;;;12.60;10.23;;;;;;;;;;5095859;28;20859;-69
2021/07/10 09:21:37;;;;;;;14.33;10.67;;;;;;;;;;5096228;28;20516;-69
2021/07/10 09:24:06;;;;;;;11.47;10.37;;;;;;;;;;5095425;28;20566;-69
2021/07/10 09:26:34;;;;;;;12.67;10.30;;;;;;;;;;5089461;28;20459;-69
2021/07/10 09:29:06;;;;;;;11.97;10.70;;;;;;;;;;5075424;28;20449;-69
2021/07/10 09:31:35;;;;;;;11.70;10.50;;;;;;;;;;5075732;28;20518;-69
2021/07/10 09:34:04;;;;;;;9.30;8.50;;;;;;;;;;5075626;28;20543;-69
2021/07/10 09:36:32;;;;;;;9.80;8.90;;;;;;;;;;5075373;28;20526;-69
2021/07/10 09:39:00;;;;;;;11.27;10.13;;;;;;;;;;5075272;28;20487;-69
2021/07/10 09:41:29;;;;;;;9.23;8.33;;;;;;;;;;5085333;28;20479;-69
2021/07/10 09:44:05;;;;;;;11.00;8.83;;;;;;;;;;5095358;28;20523;-69
2021/07/10 09:46:33;;;;;;;10.00;9.00;;;;;;;;;;5096001;28;20439;-69
2021/07/10 09:49:00;;;;;;;9.60;7.73;;;;;;;;;;5094925;28;20442;-69
2021/07/10 09:51:28;;;;;;;6.83;6.23;;;;;;;;;;5094891;28;20450;-69
2021/07/10 09:54:05;;;;;;;7.50;6.73;;;;;;;;;;5094875;28;20470;-69
2021/07/10 09:56:33;;;;;;;8.53;6.77;;;;;;;;;;5095435;28;20521;-69
2021/07/10 09:59:01;;;;;;;7.10;6.30;;;;;;;;;;5095329;28;20435;-70
2021/07/10 10:01:35;;;;;;;6.93;6.23;;;;;;;;;;5094866;28;20531;-69
2021/07/10 10:04:03;;;;;;;7.60;6.90;;;;;;;;;;5095051;28;20509;-69
2021/07/10 10:06:33;;;;;;;7.00;6.30;;;;;;;;;;5095281;28;20496;-69
2021/07/10 10:09:01;;;;;;;8.60;6.93;;;;;;;;;;5095508;28;20520;-69
2021/07/10 10:11:43;;;;;;;8.23;6.20;;;;;;;;;;5094870;28;20798;-69
2021/07/10 10:14:12;;;;;;;7.10;6.50;;;;;;;;;;5094357;28;20455;-69
2021/07/10 10:16:45;;;;;;;8.20;5.97;;;;;;;;;;5094432;28;20504;-69
2021/07/10 10:19:12;;;;;;;7.43;6.10;;;;;;;;;;5095674;28;20485;-69
2021/07/10 10:21:40;;;;;;;8.27;6.57;;;;;;;;;;5094310;28;20483;-69
2021/07/10 10:24:07;;;;;;;8.90;6.50;;;;;;;;;;5094609;28;20443;-69
2021/07/10 10:26:34;;;;;;;8.13;7.37;;;;;;;;;;5094217;28;20980;-69
2021/07/10 10:29:02;;;;;;;6.93;6.23;;;;;;;;;;5094648;28;20431;-68
2021/07/10 10:31:31;;;;;;;7.60;6.90;;;;;;;;;;5094452;28;20444;-69
2021/07/10 10:33:59;;;;;;;7.77;6.93;;;;;;;;;;5094475;28;20814;-68
2021/07/10 10:36:26;;;;;;;7.83;6.70;;;;;;;;;;5094038;28;20482;-69
2021/07/10 10:38:54;;;;;;;7.90;7.20;;;;;;;;;;5094301;28;20479;-69
2021/07/10 10:41:22;;;;;;;6.63;6.07;;;;;;;;;;5094510;28;20437;-69
2021/07/10 10:43:49;;;;;;;7.90;7.03;;;;;;;;;;5093857;28;20444;-69
2021/07/10 10:46:19;;;;;;;7.90;6.47;;;;;;;;;;5094039;28;20574;-69
2021/07/10 10:48:47;;;;;;;7.87;7.07;;;;;;;;;;5093841;28;20477;-69
2021/07/10 10:51:25;;;;;;;7.73;7.03;;;;;;;;;;5094351;28;20533;-69
2021/07/10 10:53:53;;;;;;;7.43;6.40;;;;;;;;;;5093713;28;20469;-69
2021/07/10 10:56:36;;;;;;;7.83;7.13;;;;;;;;;;5094797;28;20440;-69
2021/07/10 10:59:23;;;;;;;9.23;7.60;;;;;;;;;;5093711;28;20438;-69
2021/07/10 11:01:51;;;;;;;7.87;7.10;;;;;;;;;;5090490;28;20445;-69
2021/07/10 11:04:33;;;;;;;8.67;7.87;;;;;;;;;;5093773;28;20476;-69
2021/07/10 11:07:15;;;;;;;10.13;6.70;;;;;;;;;;5093453;28;20471;-67
2021/07/10 11:10:00;;;;;;;7.00;6.37;;;;;;;;;;5094333;28;20436;-69
2021/07/10 11:12:42;;;;;;;7.00;6.40;;;;;;;;;;5093433;28;20534;-68
2021/07/10 11:15:28;;;;;;;8.67;6.83;;;;;;;;;;5093279;28;20458;-68
2021/07/10 11:17:57;;;;;;;7.17;6.57;;;;;;;;;;5093514;28;20443;-70
2021/07/10 11:20:39;;;;;;;6.80;6.20;;;;;;;;;;5093287;28;20451;-68
2021/07/10 11:23:07;;;;;;;7.90;6.83;;;;;;;;;;5093103;28;20446;-67
2021/07/10 11:26:04;;;;;;;7.23;6.10;;;;;;;;;;5093073;28;20471;-68
2021/07/10 11:28:35;;;;;;;8.30;5.87;;;;;;;;;;5093917;28;20453;-67
2021/07/10 11:31:04;;;;;;;7.13;6.10;;;;;;;;;;5093178;28;20933;-68
2021/07/10 11:33:50;;;;;;;6.67;5.90;;;;;;;;;;5092588;28;20439;-68
2021/07/10 11:36:36;;;;;;;7.97;6.37;;;;;;;;;;5093134;28;20452;-68
2021/07/10 11:39:06;;;;;;;6.70;6.00;;;;;;;;;;5080119;28;20456;-68
2021/07/10 11:41:34;;;;;;;6.80;6.10;;;;;;;;;;5093659;28;20466;-67
2021/07/10 11:44:14;;;;;;;8.20;6.17;;;;;;;;;;5092991;28;20448;-68
2021/07/10 11:47:00;;;;;;;10.83;5.90;;;;;;;;;;5092899;28;20490;-67
2021/07/10 11:49:40;;;;;;;7.50;6.10;;;;;;;;;;5093347;28;20448;-68
2021/07/10 11:52:08;;;;;;;7.50;5.90;;;;;;;;;;5093354;28;20532;-68
2021/07/10 11:54:38;;;;;;;7.40;6.70;;;;;;;;;;5093013;28;20974;-68
2021/07/10 11:57:06;;;;;;;10.73;6.60;;;;;;;;;;5093272;28;20779;-68
2021/07/10 11:59:34;;;;;;;6.97;6.30;;;;;;;;;;5092890;28;20450;-68
2021/07/10 12:02:15;;;;;;;8.23;6.30;;;;;;;;;;5092632;28;20478;-67
2021/07/10 12:04:42;;;;;;;6.77;6.17;;;;;;;;;;5092941;28;20484;-67
2021/07/10 12:07:22;;;;;;;7.03;6.43;;;;;;;;;;5088767;28;20586;-68
2021/07/10 12:09:54;;;;;;;6.80;6.20;;;;;;;;;;5072515;28;21025;-68
2021/07/10 12:12:22;;;;;;;8.00;7.00;;;;;;;;;;5072831;28;20434;-67
2021/07/10 12:14:52;;;;;;;8.37;7.37;;;;;;;;;;5073223;28;20792;-67
2021/07/10 12:17:19;;;;;;;8.07;6.77;;;;;;;;;;5072853;28;20525;-69
2021/07/10 12:19:47;;;;;;;8.30;7.50;;;;;;;;;;5072943;28;20543;-69
2021/07/10 12:22:14;;;;;;;7.47;6.77;;;;;;;;;;5072499;28;20450;-68
2021/07/10 12:24:41;;;;;;;7.13;6.40;;;;;;;;;;5072323;28;20443;-69
2021/07/10 12:27:11;;;;;;;7.77;7.07;;;;;;;;;;5077231;28;20445;-68
2021/07/10 12:29:39;;;;;;;7.70;6.90;;;;;;;;;;5093303;28;20480;-69
2021/07/10 12:32:15;;;;;;;8.60;7.90;;;;;;;;;;5093145;28;20452;-70
2021/07/10 12:34:46;;;;;;;7.60;6.90;;;;;;;;;;5092235;28;20537;-66
2021/07/10 12:37:21;;;;;;;6.50;6.00;;;;;;;;;;5086163;28;20490;-67
2021/07/10 12:39:48;;;;;;;7.57;6.97;;;;;;;;;;5072212;28;20421;-66
2021/07/10 12:42:18;;;;;;;7.80;7.00;;;;;;;;;;5071621;28;20448;-69
2021/07/10 12:44:46;;;;;;;8.50;7.70;;;;;;;;;;5074626;28;20529;-68
2021/07/10 12:47:15;;;;;;;7.40;6.70;;;;;;;;;;5075581;28;20928;-68
2021/07/10 12:49:45;;;;;;;7.80;7.10;;;;;;;;;;5076030;28;20496;-67
2021/07/10 12:52:18;;;;;;;7.27;6.73;;;;;;;;;;5075474;28;20441;-68
2021/07/10 12:54:48;;;;;;;10.23;7.40;;;;;;;;;;5075986;28;20813;-67
2021/07/10 12:57:24;;;;;;;7.33;6.63;;;;;;;;;;5075493;28;20443;-67
2021/07/10 12:59:52;;;;;;;8.00;6.53;;;;;;;;;;5075573;28;20447;-67
2021/07/10 13:02:26;;;;;;;7.70;6.80;;;;;;;;;;5075120;28;20542;-68
2021/07/10 13:04:54;;;;;;;8.37;7.40;;;;;;;;;;5075894;28;20454;-67
2021/07/10 13:07:25;;;;;;;6.53;5.80;;;;;;;;;;5075993;28;20448;-67
2021/07/10 13:09:52;;;;;;;18.80;16.90;;;;;;;;;;5075907;28;20470;-67
2021/07/10 13:12:34;;;;;;;9.63;6.73;;;;;;;;;;5075826;28;20523;-67
2021/07/10 13:15:04;;;;;;;6.43;5.83;;;;;;;;;;5075194;28;20437;-67
2021/07/10 13:17:31;;;;;;;9.63;6.40;;;;;;;;;;5075789;28;20525;-67
2021/07/10 13:19:59;;;;;;;7.90;6.27;;;;;;;;;;5075488;28;20478;-68
2021/07/10 13:22:41;;;;;;;7.00;6.33;;;;;;;;;;5075364;28;20446;-67
2021/07/10 13:25:11;;;;;;;7.23;6.50;;;;;;;;;;5075156;28;20446;-68
2021/07/10 13:27:38;;;;;;;6.40;5.90;;;;;;;;;;5075516;28;20532;-67
2021/07/10 13:30:13;;;;;;;6.63;6.13;;;;;;;;;;5074994;28;20450;-69
2021/07/10 13:32:41;;;;;;;6.40;5.87;;;;;;;;;;5074801;28;20490;-69
2021/07/10 13:35:09;;;;;;;7.53;6.57;;;;;;;;;;5075511;28;20454;-70
2021/07/10 13:37:36;;;;;;;6.70;6.10;;;;;;;;;;5074940;28;20480;-70
2021/07/10 13:40:16;;;;;;;7.87;6.33;;;;;;;;;;5075049;28;20493;-70
2021/07/10 13:43:02;;;;;;;7.70;6.30;;;;;;;;;;5074803;28;20459;-69
2021/07/10 13:45:30;;;;;;;7.93;7.13;;;;;;;;;;5074799;28;21087;-69
2021/07/10 13:48:10;;;;;;;6.70;6.00;;;;;;;;;;5074859;28;20452;-69
2021/07/10 13:50:38;;;;;;;5.97;5.30;;;;;;;;;;5074891;28;20451;-69
2021/07/10 13:53:15;;;;;;;10.53;5.87;;;;;;;;;;5079221;28;20448;-69
2021/07/10 13:55:43;;;;;;;7.30;6.00;;;;;;;;;;5073880;28;20446;-69
2021/07/10 13:58:24;;;;;;;5.70;5.20;;;;;;;;;;5074309;28;20446;-69
2021/07/10 14:00:53;;;;;;;6.40;5.80;;;;;;;;;;5074674;28;20441;-70
2021/07/10 14:03:21;;;;;;;6.90;6.40;;;;;;;;;;5074199;28;20428;-69
2021/07/10 14:05:48;;;;;;;6.60;6.00;;;;;;;;;;5074023;28;20476;-69
2021/07/10 14:08:16;;;;;;;6.93;6.10;;;;;;;;;;5074698;28;20534;-70
2021/07/10 14:10:44;;;;;;;7.63;6.57;;;;;;;;;;5074563;28;20459;-69
2021/07/10 14:13:12;;;;;;;7.10;6.50;;;;;;;;;;5074480;28;20444;-69
2021/07/10 14:15:40;;;;;;;6.67;6.00;;;;;;;;;;5074830;28;20445;-69
2021/07/10 14:18:09;;;;;;;8.80;6.00;;;;;;;;;;5074322;28;20450;-69
2021/07/10 14:20:37;;;;;;;7.47;6.77;;;;;;;;;;5074061;28;20477;-69
2021/07/10 14:23:04;;;;;;;6.60;6.07;;;;;;;;;;5073634;28;20464;-69
2021/07/10 14:25:32;;;;;;;6.40;5.90;;;;;;;;;;5074353;28;21018;-69
2021/07/10 14:28:00;;;;;;;6.23;5.63;;;;;;;;;;5074299;28;20469;-68
2021/07/10 14:30:28;;;;;;;6.37;5.87;;;;;;;;;;5074542;28;20667;-68
2021/07/10 14:32:57;;;;;;;6.10;5.60;;;;;;;;;;5073785;28;20545;-68
2021/07/10 14:35:26;;;;;;;5.40;5.00;;;;;;;;;;5074236;28;20640;-68
2021/07/10 14:37:54;;;;;;;7.93;5.60;;;;;;;;;;5073980;28;20441;-68